Aeroporto :
LOGIN :

Iscrizione | Disclaimer

   EN    FR    IT 

 










Sommario :    VFR   VFR Marginale   IFR   IFR Intensivo   IFR Molto Intensivo
Visibilità : 
Base nubi : 
>= 8 km
>= 3000ft
5 / 8 km
1000 / 3000 ft
1500m / 5 km
500 / 1000 ft
800 / 1500m
200 / 500 ft
< 800m
< 200 ft
Simboli :   Temporali  Nebbia  Neve Forte  Precipitazioni Forti  Vento > 20 kt
SIGMETs :   Varie  Temporali  Ghiacco  Turbolenza  Onda orograficha  Ceneri Vulcaniche







- Altitudine del aeroporto : 102 ft
- Codice IATA : CNG
- Carte del aeroporto


LFBG - Cognac

ULTIMO METAR :
  • 230930Z AUTO 10006KT 070V130 CAVOK 27/14 Q1018 NOSIG

METARs OBSOLETI :
  • 230900Z AUTO 09005KT 030V150 CAVOK 26/16 Q1018 NOSIG
  • 230830Z AUTO 09005KT 050V120 CAVOK 25/16 Q1018 NOSIG
  • 230800Z AUTO 08006KT 050V110 CAVOK 23/16 Q1018 NOSIG
  • 230730Z AUTO 10004KT 060V140 CAVOK 22/16 Q1018 NOSIG
  • 230700Z AUTO VRB03KT CAVOK 21/16 Q1018 NOSIG

TAF TAF LFBG
Valido dal 23 a 09 ore il 24 a 09 ore UTC


230800Z 2309/2409 08008KT CAVOK
Nessun NOTAM noto per questo aeroporto.



MetMap, La meteo Aeronautica in un colpo d'occhio ! - Copyright ORBIFLY Dicembre 2007 - Disclaimer

ORBIFLY MET'MAP TEAM :

Programmazione e sviluppo : Alexandra Zaïnal
Concezione e sviluppo : Baudouin d'Aumeries
Co-Programmazione e sviluppo : Marc-Olivier Méhu
Supporto tecnico e logistico : Manuel Goepfert
Aiuto per la traduzione : Arnaldo La Scala

Contatto : metmap@orbifly.com




FONTI E CREDITI :

   NOAA